»·PEaware :: JUS326 KSEA-KPDX

JUS326 :: KSEA-KPDX

FLIGHT INFORMATION

Flight Status: Arrived
Operator:
USA Jet
More flights by this operator :: More flights under this callsign
Pilot: Erik S. (3779)
Aircraft: BOEING 737-300
(B733)
More flights by this aircraft type
Origin: KSEA Seattle-Tacoma Intl
United States
Destination: KPDX Portland Intl
United States
More flights between these airports :: More routes between these airports
Route: +SEA6 BUWZO KRATR2
File this flight plan on PilotEdge
Remarks:
Altitude:
(Current/Filed)
20,000ft
Speed:
(Current/Filed)
400kts
Departed: 11-Jan-18 12:09 PM
Arrived: 11-Jan-18 12:45 PM
Distance/Time
Traveled:
112nm/0:36
Distance/Time
To Go:
Arrived

Flight Plot

Page will automatically refresh every two minutes.

Flight plan parsing failed; only flown route is shown


Map Options




Map Legend


Flown Route
Filed Route
Departure Airport
Arrival Airport
Navaid (VOR, NDB)
Fix

Horizontal Profiles

Position Reports

Time Latitude Longitude Heading Altitude Ground
Speed
11-Jan-18 12:01 47.461010 -122.300676 180 440ft 0kts
11-Jan-18 12:02 47.461010 -122.300676 180 440ft 0kts
11-Jan-18 12:03 47.461010 -122.300676 180 440ft 0kts
11-Jan-18 12:04 47.461010 -122.300676 180 440ft 0kts
11-Jan-18 12:05 47.461010 -122.300676 180 440ft 0kts
11-Jan-18 12:06 47.461087 -122.300675 180 440ft 0kts
11-Jan-18 12:07 47.461579 -122.300469 241 440ft 0kts
11-Jan-18 12:08 47.461639 -122.300205 245 440ft 0kts
11-Jan-18 12:09 47.461639 -122.300205 234 440ft 0kts
11-Jan-18 12:10 47.461639 -122.300206 234 440ft 0kts
11-Jan-18 12:11 47.461639 -122.300206 234 440ft 0kts
11-Jan-18 12:12 47.461635 -122.300936 275 440ft 12kts
11-Jan-18 12:13 47.463707 -122.306188 290 440ft 0kts
11-Jan-18 12:14 47.463829 -122.306816 278 440ft 8kts
11-Jan-18 12:15 47.447419 -122.307827 179 481ft 163kts
11-Jan-18 12:16 47.397577 -122.310530 180 2994ft 210kts
11-Jan-18 12:17 47.335941 -122.315539 180 5536ft 252kts
11-Jan-18 12:18 47.271309 -122.315459 177 8606ft 256kts
11-Jan-18 12:19 47.205788 -122.314109 179 10612ft 291kts
11-Jan-18 12:20 47.122168 -122.312629 181 13102ft 311kts
11-Jan-18 12:21 47.035597 -122.311158 182 15650ft 319kts
11-Jan-18 12:22 46.950483 -122.309778 183 17819ft 326kts
11-Jan-18 12:23 46.868900 -122.309832 183 19654ft 333kts
11-Jan-18 12:24 46.782122 -122.309845 183 19938ft 369kts
11-Jan-18 12:25 46.718170 -122.309827 190 19772ft 381kts
11-Jan-18 12:26 46.622865 -122.309774 190 19792ft 384kts
11-Jan-18 12:27 46.516448 -122.309745 190 19797ft 384kts
11-Jan-18 12:28 46.414233 -122.309575 190 18019ft 351kts
11-Jan-18 12:29 46.323144 -122.309477 191 16309ft 306kts
11-Jan-18 12:30 46.240546 -122.318894 209 14607ft 277kts
11-Jan-18 12:31 46.168673 -122.359005 209 13080ft 268kts
11-Jan-18 12:32 46.098942 -122.397813 208 11391ft 257kts
11-Jan-18 12:33 46.036574 -122.431568 204 9942ft 227kts
11-Jan-18 12:34 45.979204 -122.462501 199 8355ft 215kts
11-Jan-18 12:35 45.926374 -122.494738 213 6915ft 208kts
11-Jan-18 12:36 45.883327 -122.548787 214 5751ft 207kts
11-Jan-18 12:37 45.840202 -122.603176 216 4953ft 204kts
11-Jan-18 12:38 45.829885 -122.681536 275 4987ft 230kts
11-Jan-18 12:39 45.843003 -122.771213 275 4977ft 230kts
11-Jan-18 12:40 45.856102 -122.861250 275 4974ft 231kts
11-Jan-18 12:41 45.848678 -122.940949 206 4324ft 198kts
11-Jan-18 12:42 45.802412 -122.961651 147 3962ft 177kts
11-Jan-18 12:43 45.766415 -122.921285 144 3969ft 161kts
11-Jan-18 12:44 45.731091 -122.882120 144 2903ft 164kts
11-Jan-18 12:45 45.693942 -122.841740 144 2977ft 168kts
11-Jan-18 12:46 45.661395 -122.794325 124 2886ft 165kts
11-Jan-18 12:47 45.642373 -122.743677 121 1987ft 133kts
11-Jan-18 12:48 45.624844 -122.697861 121 1262ft 131kts
11-Jan-18 12:49 45.607228 -122.652566 121 558ft 130kts
11-Jan-18 12:50 45.590025 -122.608667 120 31ft 109kts
11-Jan-18 12:51 45.584113 -122.593426 119 31ft 12kts
11-Jan-18 12:52 45.584403 -122.597140 296 31ft 29kts
11-Jan-18 12:53 45.586425 -122.605087 271 31ft 11kts
11-Jan-18 12:54 45.585687 -122.607078 178 31ft 0kts
11-Jan-18 12:55 45.585687 -122.607078 178 31ft 0kts
11-Jan-18 12:56 45.585687 -122.607078 178 31ft 0kts
11-Jan-18 12:57 45.585687 -122.607078 178 31ft 0kts
11-Jan-18 12:58 45.585687 -122.607078 178 31ft 0kts
11-Jan-18 12:59 45.585687 -122.607078 178 31ft 0kts
11-Jan-18 13:00 45.585687 -122.607078 178 31ft 0kts
11-Jan-18 13:01 45.585687 -122.607078 178 31ft 0kts
11-Jan-18 13:02 45.585687 -122.607078 178 31ft 0kts
11-Jan-18 13:03 45.585687 -122.607078 178 31ft 0kts
11-Jan-18 13:04 45.585687 -122.607078 178 31ft 0kts
11-Jan-18 13:05 45.585687 -122.607078 178 31ft 0kts
11-Jan-18 13:06 45.585687 -122.607078 178 31ft 0kts

Navigation Log

Ident Type
Flight plan parsing failed, navigation log unavailable